Time;durP1;ratioP1;P1;durP2;ratioP2;P2;SDS_P1;SDS_P2;PMS_P1;PMS_P2;Temp;Humidity;BMP_temperature;BMP_pressure;BME280_temperature;BME280_humidity;BME280_pressure;Samples;Min_cycle;Max_cycle;Signal;HPM_P1;HPM_P2
2021/11/27 00:01:21;;;;;;;4.40;2.87;;;3.80;99.90;;;;;;5058617;28;20227;-72
2021/11/27 00:03:47;;;;;;;3.57;1.97;;;3.80;99.90;;;;;;5060523;28;20551;-73
2021/11/27 00:06:14;;;;;;;5.30;3.17;;;3.80;99.90;;;;;;5090433;28;20528;-73
2021/11/27 00:08:40;;;;;;;3.50;2.90;;;3.90;99.90;;;;;;5091016;28;20303;-72
2021/11/27 00:11:06;;;;;;;7.70;4.10;;;3.90;99.90;;;;;;5081250;28;20462;-72
2021/11/27 00:13:31;;;;;;;5.47;2.90;;;4.00;99.90;;;;;;5062771;28;20460;-72
2021/11/27 00:15:58;;;;;;;2.40;2.20;;;4.00;99.90;;;;;;5082223;28;20528;-73
2021/11/27 00:18:25;;;;;;;3.80;2.30;;;4.00;99.90;;;;;;5069789;28;20246;-73
2021/11/27 00:21:01;;;;;;;3.73;2.40;;;3.90;99.90;;;;;;5070866;28;20457;-74
2021/11/27 00:23:29;;;;;;;2.20;2.00;;;3.90;99.90;;;;;;5053200;28;20504;-73
2021/11/27 00:25:55;;;;;;;3.50;1.73;;;3.90;99.90;;;;;;5069802;28;20461;-73
2021/11/27 00:28:21;;;;;;;2.93;2.30;;;3.90;99.90;;;;;;5066277;28;20442;-74
2021/11/27 00:30:47;;;;;;;3.90;2.43;;;3.90;99.90;;;;;;5031877;28;20303;-73
2021/11/27 00:33:13;;;;;;;2.10;1.90;;;3.90;99.90;;;;;;5047707;28;20464;-73
2021/11/27 00:35:40;;;;;;;2.20;1.80;;;3.90;99.90;;;;;;5056642;28;20458;-73
2021/11/27 00:38:06;;;;;;;4.50;2.00;;;3.90;99.90;;;;;;5059148;28;20480;-73
2021/11/27 00:40:36;;;;;;;4.57;2.60;;;3.90;99.90;;;;;;5054798;28;20223;-74
2021/11/27 00:43:04;;;;;;;3.10;2.17;;;4.00;99.90;;;;;;5052998;28;20469;-73
2021/11/27 00:45:29;;;;;;;3.23;1.93;;;4.00;99.90;;;;;;5071137;28;20460;-73
2021/11/27 00:47:58;;;;;;;3.10;1.63;;;4.00;99.90;;;;;;5048468;28;20518;-74
2021/11/27 00:50:31;;;;;;;4.57;2.00;;;4.00;99.90;;;;;;5070684;28;20446;-73
2021/11/27 00:52:59;;;;;;;3.30;1.50;;;4.00;99.90;;;;;;5047758;28;20443;-73
2021/11/27 00:55:26;;;;;;;2.30;1.83;;;4.00;99.90;;;;;;5059908;28;20452;-74
2021/11/27 00:57:52;;;;;;;1.80;1.70;;;4.00;99.90;;;;;;5054241;28;20543;-72
2021/11/27 01:00:25;;;;;;;1.17;1.00;;;3.90;99.90;;;;;;5032654;28;20537;-74
2021/11/27 01:02:52;;;;;;;3.83;1.67;;;4.00;99.90;;;;;;5071883;28;20264;-73
2021/11/27 01:05:21;;;;;;;2.60;1.87;;;4.00;99.90;;;;;;5057341;28;20446;-74
2021/11/27 01:07:47;;;;;;;2.43;1.80;;;4.00;99.90;;;;;;5051999;28;20458;-73
2021/11/27 01:10:17;;;;;;;3.63;2.20;;;3.90;99.90;;;;;;5073004;28;20809;-73
2021/11/27 01:12:43;;;;;;;3.10;1.90;;;4.00;99.90;;;;;;5052682;28;20553;-72
2021/11/27 01:15:13;;;;;;;3.07;1.70;;;4.00;99.90;;;;;;5042799;28;20478;-74
2021/11/27 01:17:39;;;;;;;3.70;1.60;;;4.00;99.90;;;;;;5038799;28;20486;-73
2021/11/27 01:20:08;;;;;;;1.43;1.30;;;4.00;99.90;;;;;;5072682;28;20461;-74
2021/11/27 01:22:34;;;;;;;2.43;2.23;;;4.00;99.90;;;;;;5069087;28;20461;-72
2021/11/27 01:25:00;;;;;;;4.30;2.23;;;4.00;99.90;;;;;;5062032;28;21043;-74
2021/11/27 01:27:27;;;;;;;1.90;1.63;;;4.00;99.90;;;;;;5055956;28;20471;-74
2021/11/27 01:29:53;;;;;;;2.13;1.90;;;4.00;99.90;;;;;;5030864;28;20238;-73
2021/11/27 01:32:19;;;;;;;2.20;2.00;;;4.00;99.90;;;;;;5040755;28;20941;-74
2021/11/27 01:34:47;;;;;;;2.00;1.27;;;4.00;99.90;;;;;;5065527;28;20469;-72
2021/11/27 01:37:13;;;;;;;2.07;1.43;;;4.00;99.90;;;;;;5034337;28;20490;-73
2021/11/27 01:39:40;;;;;;;3.40;2.00;;;3.90;99.90;;;;;;5044543;28;20533;-74
2021/11/27 01:42:07;;;;;;;1.67;1.30;;;4.00;99.90;;;;;;5067301;28;21003;-73
2021/11/27 01:44:33;;;;;;;1.80;1.70;;;3.90;99.90;;;;;;5067491;28;21025;-73
2021/11/27 01:47:00;;;;;;;2.77;1.20;;;4.00;99.90;;;;;;5078582;28;20456;-74
2021/11/27 01:49:27;;;;;;;0.80;0.80;;;4.00;99.90;;;;;;5055742;28;20482;-73
2021/11/27 01:51:53;;;;;;;1.10;1.00;;;4.00;99.90;;;;;;5063823;28;20466;-74
2021/11/27 01:54:19;;;;;;;1.50;1.40;;;4.00;99.90;;;;;;5085969;28;20480;-73
2021/11/27 01:56:49;;;;;;;1.70;1.60;;;4.00;99.90;;;;;;5073896;28;20462;-74
2021/11/27 01:59:23;;;;;;;1.53;1.43;;;4.00;99.90;;;;;;5061097;28;20441;-74
2021/11/27 02:01:50;;;;;;;1.93;1.40;;;4.00;99.90;;;;;;5061619;28;20454;-73
2021/11/27 02:04:20;;;;;;;3.47;1.90;;;4.00;99.90;;;;;;5047782;28;20449;-73
2021/11/27 02:06:46;;;;;;;2.63;1.43;;;4.00;99.90;;;;;;5055363;28;20457;-74
2021/11/27 02:09:17;;;;;;;4.73;2.50;;;4.00;99.90;;;;;;5057790;28;20207;-74
2021/11/27 02:11:44;;;;;;;5.90;4.30;;;4.00;99.90;;;;;;5040557;28;20457;-73
2021/11/27 02:14:10;;;;;;;5.37;3.80;;;4.00;99.90;;;;;;5041526;28;20487;-74
2021/11/27 02:16:49;;;;;;;3.20;2.90;;;4.00;99.90;;;;;;5078111;28;20477;-74
2021/11/27 02:19:18;;;;;;;2.77;1.80;;;4.10;99.90;;;;;;5034859;28;20465;-74
2021/11/27 02:21:45;;;;;;;2.33;2.07;;;4.10;99.90;;;;;;5054317;28;20545;-74
2021/11/27 02:24:13;;;;;;;3.00;2.30;;;4.10;99.90;;;;;;5064652;28;20449;-74
2021/11/27 02:26:40;;;;;;;1.43;1.33;;;4.10;99.90;;;;;;5074874;28;20479;-74
2021/11/27 02:29:13;;;;;;;5.83;3.00;;;4.10;99.90;;;;;;5049039;28;20475;-74
2021/11/27 02:31:39;;;;;;;7.00;2.63;;;4.10;99.90;;;;;;5039176;28;21004;-72
2021/11/27 02:34:07;;;;;;;5.00;3.40;;;4.10;99.90;;;;;;5062299;28;20460;-74
2021/11/27 02:36:34;;;;;;;3.60;2.50;;;4.10;99.90;;;;;;5050295;28;20473;-73
2021/11/27 02:39:04;;;;;;;4.63;3.30;;;4.10;99.90;;;;;;5042692;28;20459;-74
2021/11/27 02:41:29;;;;;;;4.00;2.30;;;4.10;99.90;;;;;;4996424;28;20444;-74
2021/11/27 02:43:55;;;;;;;2.30;1.97;;;4.10;99.90;;;;;;5046293;28;20538;-73
2021/11/27 02:46:21;;;;;;;3.90;1.47;;;4.10;99.90;;;;;;5040595;28;20275;-74
2021/11/27 02:48:47;;;;;;;1.77;1.60;;;4.10;99.90;;;;;;5052706;28;20220;-73
2021/11/27 02:51:12;;;;;;;2.27;1.30;;;4.10;99.90;;;;;;5035463;28;20224;-74
2021/11/27 02:53:40;;;;;;;1.60;1.50;;;4.10;99.90;;;;;;5063746;28;20219;-74
2021/11/27 02:56:06;;;;;;;1.63;1.50;;;4.10;99.90;;;;;;5068661;28;20462;-74
2021/11/27 02:58:32;;;;;;;1.23;1.17;;;4.20;99.90;;;;;;5070339;28;20450;-73
2021/11/27 03:01:02;;;;;;;1.83;1.50;;;4.10;99.90;;;;;;5055325;28;20471;-73
2021/11/27 03:03:29;;;;;;;1.10;1.00;;;4.10;99.90;;;;;;5065942;28;20462;-73
2021/11/27 03:05:54;;;;;;;1.00;0.90;;;4.10;99.90;;;;;;5050479;28;20487;-74
2021/11/27 03:08:20;;;;;;;1.40;1.30;;;4.20;99.90;;;;;;5065076;28;20215;-74
2021/11/27 03:10:47;;;;;;;1.73;1.40;;;4.10;99.90;;;;;;5061488;28;20211;-73
2021/11/27 03:13:13;;;;;;;1.43;1.10;;;4.20;99.90;;;;;;5071178;28;21042;-73
2021/11/27 03:15:42;;;;;;;0.80;0.80;;;4.10;99.90;;;;;;5063837;28;21052;-73
2021/11/27 03:18:09;;;;;;;0.90;0.90;;;4.20;99.90;;;;;;5091509;28;20533;-72
2021/11/27 03:20:35;;;;;;;1.57;1.23;;;4.20;99.90;;;;;;5069286;28;20529;-74
2021/11/27 03:23:00;;;;;;;1.20;1.10;;;4.20;99.90;;;;;;5068794;28;20525;-74
2021/11/27 03:25:26;;;;;;;2.17;1.30;;;4.20;99.90;;;;;;5079570;28;20249;-73
2021/11/27 03:27:52;;;;;;;1.13;0.93;;;4.20;99.90;;;;;;5073495;28;20770;-73
2021/11/27 03:30:19;;;;;;;0.67;0.67;;;4.20;99.90;;;;;;5056047;28;20345;-73
2021/11/27 03:32:51;;;;;;;1.20;1.10;;;4.20;99.90;;;;;;5062054;28;20516;-73
2021/11/27 03:35:20;;;;;;;1.23;0.90;;;4.20;99.90;;;;;;5043414;28;20886;-73
2021/11/27 03:37:50;;;;;;;0.80;0.80;;;4.20;99.90;;;;;;5047398;28;20967;-73
2021/11/27 03:40:21;;;;;;;0.90;0.90;;;4.20;99.90;;;;;;5031284;28;20969;-74
2021/11/27 03:42:50;;;;;;;1.30;0.80;;;4.20;99.90;;;;;;5044049;28;20457;-73
2021/11/27 03:45:19;;;;;;;1.70;0.90;;;4.20;99.90;;;;;;5034963;28;20454;-73
2021/11/27 03:48:04;;;;;;;2.50;1.60;;;4.20;99.90;;;;;;5031116;28;20467;-73
2021/11/27 03:50:35;;;;;;;1.80;1.13;;;4.20;99.90;;;;;;5039349;28;20446;-74
2021/11/27 03:53:03;;;;;;;1.10;1.00;;;4.20;99.90;;;;;;5039438;28;20454;-72
2021/11/27 03:55:30;;;;;;;1.50;1.40;;;4.20;99.90;;;;;;5033832;28;20516;-72
2021/11/27 03:57:55;;;;;;;1.17;1.10;;;4.20;99.90;;;;;;5062984;28;20461;-73
2021/11/27 04:00:22;;;;;;;1.67;1.23;;;4.20;99.90;;;;;;5090735;28;20448;-73
2021/11/27 04:02:47;;;;;;;0.90;0.80;;;4.20;99.90;;;;;;5090687;28;20460;-73
2021/11/27 04:05:17;;;;;;;1.47;0.97;;;4.20;99.90;;;;;;5090444;28;20218;-73
2021/11/27 04:07:43;;;;;;;1.10;1.00;;;4.20;99.90;;;;;;5091151;28;20510;-72
2021/11/27 04:10:10;;;;;;;1.17;0.83;;;4.20;99.90;;;;;;5079459;28;20453;-73
2021/11/27 04:12:37;;;;;;;0.93;0.87;;;4.30;99.90;;;;;;5031628;28;20459;-72
2021/11/27 04:15:04;;;;;;;1.40;1.30;;;4.30;99.90;;;;;;5030431;28;20464;-73
2021/11/27 04:17:30;;;;;;;1.20;1.00;;;4.30;99.90;;;;;;5051335;28;20242;-72
2021/11/27 04:19:56;;;;;;;1.10;1.00;;;4.30;99.90;;;;;;5057275;28;20839;-74
2021/11/27 04:22:22;;;;;;;0.90;0.90;;;4.30;99.90;;;;;;5058296;28;20600;-73
2021/11/27 04:24:56;;;;;;;0.80;0.80;;;4.30;99.90;;;;;;5058277;28;20888;-73
2021/11/27 04:27:22;;;;;;;1.20;1.00;;;4.30;99.90;;;;;;5057736;28;20473;-73
2021/11/27 04:29:48;;;;;;;1.07;1.07;;;4.30;99.90;;;;;;5063871;28;20226;-73
2021/11/27 04:32:15;;;;;;;1.30;1.20;;;4.30;99.90;;;;;;5049640;28;20455;-72
2021/11/27 04:34:52;;;;;;;0.87;0.80;;;4.30;99.90;;;;;;5054380;28;20473;-73
2021/11/27 04:37:18;;;;;;;1.80;1.20;;;4.30;99.90;;;;;;5053133;28;20487;-73
2021/11/27 04:39:44;;;;;;;1.00;0.97;;;4.30;99.90;;;;;;5053306;28;20231;-74
2021/11/27 04:42:10;;;;;;;0.97;0.97;;;4.30;99.90;;;;;;5059723;28;20230;-73
2021/11/27 04:44:36;;;;;;;1.40;1.23;;;4.30;99.90;;;;;;5089893;28;20464;-72
2021/11/27 04:47:02;;;;;;;0.90;0.90;;;4.30;99.90;;;;;;5072708;28;20968;-73
2021/11/27 04:49:28;;;;;;;1.27;1.10;;;4.30;99.90;;;;;;5061836;28;20501;-73
2021/11/27 04:51:54;;;;;;;3.00;1.53;;;4.30;99.90;;;;;;5082858;28;20274;-73
2021/11/27 04:54:20;;;;;;;1.60;1.30;;;4.30;99.90;;;;;;5047547;28;20590;-73
2021/11/27 04:56:45;;;;;;;1.00;1.00;;;4.30;99.90;;;;;;5064491;28;20479;-74
2021/11/27 04:59:11;;;;;;;0.97;0.87;;;4.40;99.90;;;;;;5072648;28;20238;-73
2021/11/27 05:01:37;;;;;;;1.40;1.30;;;4.40;99.90;;;;;;5081734;28;20223;-73
2021/11/27 05:04:04;;;;;;;1.30;1.17;;;4.40;99.90;;;;;;5069673;28;20215;-73
2021/11/27 05:06:31;;;;;;;0.87;0.87;;;4.40;99.90;;;;;;5051742;28;20463;-73
2021/11/27 05:08:57;;;;;;;1.70;1.43;;;4.40;99.90;;;;;;5061943;28;20469;-73
2021/11/27 05:11:23;;;;;;;3.03;1.23;;;4.40;99.90;;;;;;5064137;28;20437;-73
2021/11/27 05:13:52;;;;;;;1.33;1.20;;;4.40;99.90;;;;;;5089246;28;20471;-73
2021/11/27 05:16:18;;;;;;;1.13;1.03;;;4.30;99.90;;;;;;5072393;28;20473;-74
2021/11/27 05:18:45;;;;;;;1.57;1.10;;;4.30;99.90;;;;;;5066038;28;20449;-73
2021/11/27 05:21:19;;;;;;;1.50;1.40;;;4.40;99.90;;;;;;5085848;28;20498;-73
2021/11/27 05:23:45;;;;;;;1.87;1.43;;;4.30;99.90;;;;;;5089384;28;20473;-74
2021/11/27 05:26:30;;;;;;;1.77;1.67;;;4.40;99.90;;;;;;5080971;28;20226;-74
2021/11/27 05:29:16;;;;;;;1.50;1.40;;;4.30;99.90;;;;;;5050168;28;20447;-73
2021/11/27 05:31:42;;;;;;;1.50;1.40;;;4.30;99.90;;;;;;5071580;28;20449;-72
2021/11/27 05:36:38;;;;;;;2.20;2.00;;;4.40;99.90;;;;;;5076289;28;20466;-71
2021/11/27 05:39:05;;;;;;;1.80;1.67;;;4.40;99.90;;;;;;5089109;28;20230;-73
2021/11/27 05:41:31;;;;;;;1.70;1.60;;;4.30;99.90;;;;;;5065305;28;20531;-72
2021/11/27 05:43:59;;;;;;;1.60;1.37;;;4.30;99.90;;;;;;5052293;28;20465;-73
2021/11/27 05:46:25;;;;;;;3.63;2.17;;;4.30;99.90;;;;;;5052346;28;20517;-72
2021/11/27 05:48:51;;;;;;;1.73;1.63;;;4.30;99.90;;;;;;5051926;28;20526;-74
2021/11/27 05:51:41;;;;;;;1.37;1.27;;;4.40;99.90;;;;;;5064985;28;20454;-72
2021/11/27 05:54:06;;;;;;;2.90;2.30;;;4.30;99.90;;;;;;5088463;28;20463;-73
2021/11/27 05:56:32;;;;;;;1.30;1.20;;;4.30;99.90;;;;;;5090464;28;20309;-72
2021/11/27 05:58:58;;;;;;;1.67;1.50;;;4.30;99.90;;;;;;5072725;28;20234;-73
2021/11/27 06:01:25;;;;;;;1.60;1.50;;;4.30;99.90;;;;;;5085895;28;20746;-74
2021/11/27 06:03:51;;;;;;;1.47;1.37;;;4.30;99.90;;;;;;5076867;28;20266;-73
2021/11/27 06:06:16;;;;;;;2.40;1.87;;;4.30;99.90;;;;;;5075291;28;20492;-73
2021/11/27 06:08:42;;;;;;;2.50;1.70;;;4.30;99.90;;;;;;5064048;28;20280;-73
2021/11/27 06:11:08;;;;;;;1.60;1.50;;;4.30;99.90;;;;;;5064512;28;20222;-73
2021/11/27 06:13:34;;;;;;;2.77;2.00;;;4.40;99.90;;;;;;5076572;28;20276;-73
2021/11/27 06:16:00;;;;;;;1.90;1.70;;;4.40;99.90;;;;;;5071773;28;20229;-73
2021/11/27 06:18:26;;;;;;;1.50;1.33;;;4.40;99.90;;;;;;5093197;28;20449;-74
2021/11/27 06:20:52;;;;;;;1.40;1.30;;;4.40;99.90;;;;;;5070915;28;20512;-75
2021/11/27 06:23:17;;;;;;;1.30;1.20;;;4.40;99.90;;;;;;5088465;28;20659;-73
2021/11/27 06:25:43;;;;;;;1.80;1.57;;;4.40;99.90;;;;;;5092765;28;20245;-73
2021/11/27 06:28:09;;;;;;;1.80;1.37;;;4.40;99.90;;;;;;5092545;28;20226;-73
2021/11/27 06:30:36;;;;;;;1.70;1.57;;;4.40;99.90;;;;;;5082881;28;20302;-74
2021/11/27 06:33:02;;;;;;;1.97;1.80;;;4.40;99.90;;;;;;5092133;28;20256;-74
2021/11/27 06:35:27;;;;;;;1.43;1.33;;;4.40;99.90;;;;;;5056614;28;20455;-74
2021/11/27 06:37:53;;;;;;;1.97;1.37;;;4.40;99.90;;;;;;5088357;28;20465;-73
2021/11/27 06:40:19;;;;;;;1.77;1.27;;;4.40;99.90;;;;;;5055532;28;20306;-76
2021/11/27 06:43:03;;;;;;;1.30;1.20;;;4.40;99.90;;;;;;5071825;28;20763;-75
2021/11/27 06:46:04;;;;;;;1.47;1.37;;;4.40;99.90;;;;;;5064950;28;20999;-73
2021/11/27 06:48:30;;;;;;;1.70;1.60;;;4.40;99.90;;;;;;5090250;28;20484;-73
2021/11/27 06:50:56;;;;;;;2.40;1.27;;;4.30;99.90;;;;;;5094104;28;20231;-73
2021/11/27 06:53:22;;;;;;;1.90;1.40;;;4.30;99.90;;;;;;5092184;28;20282;-73
2021/11/27 06:55:47;;;;;;;1.30;1.20;;;4.30;99.90;;;;;;5092377;28;20705;-75
2021/11/27 06:58:13;;;;;;;1.47;1.00;;;4.30;99.90;;;;;;5090352;28;20476;-73
2021/11/27 07:00:47;;;;;;;1.60;1.50;;;4.20;99.90;;;;;;5072066;28;20246;-73
2021/11/27 07:03:36;;;;;;;2.50;1.77;;;4.20;99.90;;;;;;5072677;28;20468;-74
2021/11/27 07:06:20;;;;;;;1.50;1.40;;;4.20;99.90;;;;;;5076254;28;20443;-74
2021/11/27 07:08:45;;;;;;;2.13;1.43;;;4.20;99.90;;;;;;5063629;28;20469;-73
2021/11/27 07:11:28;;;;;;;2.00;1.80;;;4.20;99.90;;;;;;5064437;28;20243;-73
2021/11/27 07:13:53;;;;;;;2.47;1.40;;;4.10;99.90;;;;;;5083300;28;20507;-73
2021/11/27 07:16:19;;;;;;;2.20;1.77;;;4.10;99.90;;;;;;5074702;28;20230;-73
2021/11/27 07:18:44;;;;;;;1.63;1.50;;;4.10;99.90;;;;;;5091796;28;20306;-73
2021/11/27 07:21:12;;;;;;;1.83;1.73;;;4.10;99.90;;;;;;5082494;28;20214;-74
2021/11/27 07:23:38;;;;;;;1.50;1.40;;;4.10;99.90;;;;;;5052688;28;20482;-73
2021/11/27 07:26:03;;;;;;;1.70;1.60;;;4.10;99.90;;;;;;5067962;28;20994;-74
2021/11/27 07:28:52;;;;;;;1.20;1.10;;;4.10;99.90;;;;;;5064808;28;20210;-74
2021/11/27 07:31:18;;;;;;;2.13;1.93;;;4.10;99.90;;;;;;5083025;28;20463;-74
2021/11/27 07:33:46;;;;;;;1.30;1.20;;;4.10;99.90;;;;;;5089388;28;20940;-74
2021/11/27 07:36:12;;;;;;;1.97;1.80;;;4.10;99.90;;;;;;5070052;28;20461;-73
2021/11/27 07:38:39;;;;;;;1.40;1.30;;;4.10;99.90;;;;;;5083824;28;20715;-74
2021/11/27 07:41:06;;;;;;;2.67;2.03;;;4.10;99.90;;;;;;5084877;28;20445;-75
2021/11/27 07:43:33;;;;;;;2.83;2.10;;;4.10;99.90;;;;;;5074708;28;20528;-73
2021/11/27 07:46:07;;;;;;;2.30;2.10;;;4.20;99.90;;;;;;5071922;28;20283;-74
2021/11/27 07:48:40;;;;;;;1.93;1.80;;;4.10;99.90;;;;;;5082408;28;20532;-74
2021/11/27 07:51:25;;;;;;;1.60;1.50;;;4.20;99.90;;;;;;5091653;28;20922;-73
2021/11/27 07:53:55;;;;;;;1.43;1.33;;;4.10;99.90;;;;;;5090856;28;20460;-73
2021/11/27 07:56:22;;;;;;;3.40;2.40;;;4.10;99.90;;;;;;5066007;28;20469;-73
2021/11/27 07:58:47;;;;;;;2.37;2.00;;;4.10;99.90;;;;;;5074090;28;20473;-73
2021/11/27 08:01:13;;;;;;;2.47;1.90;;;4.20;99.90;;;;;;5070407;28;20298;-74
2021/11/27 08:03:39;;;;;;;1.57;1.47;;;4.10;99.90;;;;;;5070140;28;20222;-73
2021/11/27 08:06:04;;;;;;;1.80;1.70;;;4.10;99.90;;;;;;5053248;28;20211;-74
2021/11/27 08:08:30;;;;;;;1.67;1.57;;;4.10;99.90;;;;;;5067120;28;20293;-73
2021/11/27 08:10:56;;;;;;;1.63;1.53;;;4.10;99.90;;;;;;5079618;28;20268;-74
2021/11/27 08:13:23;;;;;;;2.00;1.80;;;4.10;99.90;;;;;;5088022;28;20211;-73
2021/11/27 08:15:49;;;;;;;1.63;1.53;;;4.10;99.90;;;;;;5075935;28;20298;-73
2021/11/27 08:18:14;;;;;;;1.70;1.27;;;4.00;99.90;;;;;;5086013;28;20548;-74
2021/11/27 08:20:40;;;;;;;3.03;2.03;;;4.10;99.90;;;;;;5074011;28;20219;-73
2021/11/27 08:23:06;;;;;;;1.93;1.67;;;4.00;99.90;;;;;;5087761;28;20219;-73
2021/11/27 08:25:33;;;;;;;2.93;1.90;;;4.00;99.90;;;;;;5071875;28;20227;-73
2021/11/27 08:27:59;;;;;;;2.70;1.50;;;4.00;99.90;;;;;;5066751;28;20215;-73
2021/11/27 08:30:27;;;;;;;2.50;1.70;;;4.00;99.90;;;;;;5075910;28;20453;-74
2021/11/27 08:32:53;;;;;;;1.83;1.67;;;4.00;99.90;;;;;;5089954;28;20469;-74
2021/11/27 08:35:19;;;;;;;1.60;1.50;;;3.90;99.90;;;;;;5089751;28;20457;-73
2021/11/27 08:37:45;;;;;;;2.17;1.77;;;3.90;99.90;;;;;;5054019;28;20805;-73
2021/11/27 08:40:11;;;;;;;2.53;2.30;;;3.90;99.90;;;;;;5074579;28;20231;-74
2021/11/27 08:42:38;;;;;;;2.90;2.00;;;4.00;99.90;;;;;;5053201;28;20243;-73
2021/11/27 08:45:05;;;;;;;2.37;1.80;;;3.90;99.90;;;;;;5074584;28;20472;-73
2021/11/27 08:47:31;;;;;;;2.40;1.87;;;3.90;99.90;;;;;;5081051;28;20484;-75
2021/11/27 08:49:59;;;;;;;2.47;2.10;;;3.90;99.90;;;;;;5063912;28;20493;-73
2021/11/27 08:52:25;;;;;;;2.80;2.60;;;3.90;99.90;;;;;;5058049;28;20514;-73
2021/11/27 08:54:50;;;;;;;3.93;3.07;;;3.90;99.90;;;;;;5071124;28;20477;-74
2021/11/27 08:57:16;;;;;;;2.20;2.00;;;4.00;99.90;;;;;;5080298;28;20242;-73
2021/11/27 08:59:42;;;;;;;2.20;2.00;;;3.90;99.90;;;;;;5068143;28;20219;-73
2021/11/27 09:02:08;;;;;;;1.83;1.73;;;4.00;99.90;;;;;;5069128;28;20222;-73
2021/11/27 09:04:34;;;;;;;1.40;1.30;;;4.00;99.90;;;;;;5070558;28;20219;-73
2021/11/27 09:07:01;;;;;;;1.97;1.77;;;4.00;99.90;;;;;;5051856;28;20450;-74
2021/11/27 09:09:27;;;;;;;1.70;1.57;;;4.10;99.90;;;;;;5067550;28;20449;-74
2021/11/27 09:11:53;;;;;;;2.10;1.50;;;4.10;99.90;;;;;;5082760;28;20459;-73
2021/11/27 09:14:20;;;;;;;1.10;1.10;;;4.10;99.90;;;;;;5082491;28;20241;-72
2021/11/27 09:16:46;;;;;;;1.13;1.03;;;4.10;99.90;;;;;;5077386;28;20461;-75
2021/11/27 09:19:12;;;;;;;1.67;1.57;;;4.10;99.90;;;;;;5076762;28;20493;-73
2021/11/27 09:21:38;;;;;;;3.13;1.63;;;4.20;99.90;;;;;;5045473;28;20477;-74
2021/11/27 09:24:05;;;;;;;2.57;1.30;;;4.20;99.90;;;;;;5049431;28;20702;-73
2021/11/27 09:26:31;;;;;;;5.23;1.80;;;4.20;99.90;;;;;;5066081;28;20703;-74
2021/11/27 09:28:57;;;;;;;1.50;1.40;;;4.20;99.90;;;;;;5063000;28;20457;-73
2021/11/27 09:31:23;;;;;;;1.70;1.47;;;4.30;99.90;;;;;;5068729;28;20437;-74
2021/11/27 09:33:49;;;;;;;2.57;1.30;;;4.40;99.90;;;;;;5042001;28;20462;-74
2021/11/27 09:36:16;;;;;;;2.17;1.60;;;4.40;99.90;;;;;;5083900;28;20238;-73
2021/11/27 09:38:43;;;;;;;2.93;1.77;;;4.50;99.90;;;;;;5065195;28;20220;-73
2021/11/27 09:41:24;;;;;;;2.20;1.60;;;4.60;99.90;;;;;;5075078;28;20869;-73
2021/11/27 09:43:51;;;;;;;1.27;1.17;;;4.60;99.90;;;;;;5069009;28;20471;-74
2021/11/27 09:46:19;;;;;;;2.43;1.60;;;4.70;99.90;;;;;;5068823;28;20450;-74
2021/11/27 09:48:49;;;;;;;1.57;1.30;;;4.70;99.90;;;;;;5052562;28;20509;-74
2021/11/27 09:51:15;;;;;;;1.67;1.47;;;4.80;99.90;;;;;;5047321;28;20466;-73
2021/11/27 09:53:41;;;;;;;1.40;1.30;;;4.80;99.90;;;;;;5082525;28;20451;-73
2021/11/27 09:56:08;;;;;;;3.17;1.43;;;4.90;99.90;;;;;;5069704;28;20485;-74
2021/11/27 09:58:34;;;;;;;2.57;2.20;;;4.90;99.90;;;;;;5067807;28;20450;-73
2021/11/27 10:01:05;;;;;;;5.17;3.13;;;5.00;99.90;;;;;;5055388;28;20450;-72
2021/11/27 10:03:31;;;;;;;4.40;3.80;;;5.00;99.90;;;;;;5087730;28;20571;-73
2021/11/27 10:05:58;;;;;;;5.80;4.67;;;5.10;99.90;;;;;;5077735;28;20443;-73
2021/11/27 10:08:25;;;;;;;5.37;4.83;;;5.20;99.90;;;;;;5049838;28;20457;-74
2021/11/27 10:10:51;;;;;;;4.30;4.00;;;5.30;99.90;;;;;;5071095;28;20590;-74
2021/11/27 10:13:21;;;;;;;2.77;2.50;;;5.30;99.90;;;;;;5066066;28;21057;-74
2021/11/27 10:15:48;;;;;;;9.53;6.27;;;5.40;99.90;;;;;;5051028;28;20217;-73
2021/11/27 10:18:19;;;;;;;33.93;15.63;;;5.40;99.90;;;;;;5070606;28;20470;-73
2021/11/27 10:20:45;;;;;;;30.20;13.07;;;5.40;99.90;;;;;;5060081;28;20456;-73
2021/11/27 10:23:11;;;;;;;22.33;9.40;;;5.40;99.90;;;;;;5049285;28;20463;-76
2021/11/27 10:25:42;;;;;;;83.40;36.87;;;5.50;99.90;;;;;;5064031;28;20231;-74
2021/11/27 10:28:17;;;;;;;89.83;39.00;;;5.50;99.90;;;;;;5087412;28;20458;-73
2021/11/27 10:30:49;;;;;;;51.37;24.10;;;5.60;99.90;;;;;;5066156;28;20464;-73
2021/11/27 10:33:16;;;;;;;70.83;32.13;;;5.60;99.90;;;;;;5076176;28;20506;-73
2021/11/27 10:35:50;;;;;;;170.87;70.90;;;5.60;99.90;;;;;;5032241;28;20473;-74
2021/11/27 10:38:16;;;;;;;101.60;46.53;;;5.60;99.90;;;;;;5048807;28;20462;-74
2021/11/27 10:40:41;;;;;;;39.30;25.13;;;5.60;99.90;;;;;;5060021;28;20536;-73
2021/11/27 10:43:10;;;;;;;17.33;11.77;;;5.60;99.90;;;;;;5068066;28;20528;-74
2021/11/27 10:45:38;;;;;;;8.63;5.60;;;5.60;99.90;;;;;;5054866;28;20597;-73
2021/11/27 10:48:10;;;;;;;5.07;4.10;;;5.60;99.90;;;;;;5053049;28;20454;-75
2021/11/27 10:50:52;;;;;;;3.77;2.40;;;5.60;99.90;;;;;;5050151;28;20527;-74
2021/11/27 10:53:20;;;;;;;4.47;1.97;;;5.60;99.90;;;;;;5062531;28;20456;-74
2021/11/27 10:55:46;;;;;;;9.97;5.30;;;5.60;99.90;;;;;;5033541;28;20462;-74
2021/11/27 10:58:14;;;;;;;5.73;4.37;;;5.60;99.90;;;;;;5044350;28;20467;-74
2021/11/27 11:00:48;;;;;;;4.27;3.13;;;5.70;99.90;;;;;;5045210;28;20889;-70
2021/11/27 11:03:32;;;;;;;5.53;3.33;;;5.70;99.90;;;;;;5057224;28;20543;-74
2021/11/27 11:06:01;;;;;;;5.20;4.03;;;5.70;99.90;;;;;;5062291;28;20510;-74
2021/11/27 11:08:54;;;;;;;8.20;5.17;;;5.70;99.90;;;;;;5069743;28;20457;-74
2021/11/27 11:11:20;;;;;;;6.93;4.53;;;5.70;99.90;;;;;;5050880;28;20454;-74
2021/11/27 11:13:54;;;;;;;5.90;4.30;;;5.70;99.90;;;;;;5082323;28;21019;-73
2021/11/27 11:16:23;;;;;;;5.10;3.97;;;5.70;99.90;;;;;;5076591;28;20230;-74
2021/11/27 11:18:52;;;;;;;5.27;4.10;;;5.70;99.90;;;;;;5051837;28;20525;-74
2021/11/27 11:21:20;;;;;;;5.23;2.90;;;5.70;99.90;;;;;;5050913;28;20455;-73
2021/11/27 11:23:46;;;;;;;2.57;2.37;;;5.60;99.90;;;;;;5075452;28;20458;-73
2021/11/27 11:26:14;;;;;;;3.10;1.87;;;5.60;99.90;;;;;;5087417;28;20460;-73
2021/11/27 11:29:07;;;;;;;1.90;1.60;;;5.60;99.90;;;;;;5082291;28;20226;-73
2021/11/27 11:31:35;;;;;;;2.60;1.90;;;5.60;99.90;;;;;;5078828;28;20968;-74
2021/11/27 11:34:02;;;;;;;5.00;2.60;;;5.50;99.90;;;;;;5069280;28;20487;-73
2021/11/27 11:36:28;;;;;;;2.27;1.90;;;5.50;99.90;;;;;;5069340;28;20503;-73
2021/11/27 11:39:00;;;;;;;1.70;1.60;;;5.50;99.90;;;;;;5070991;28;20502;-73
2021/11/27 11:41:29;;;;;;;6.30;4.00;;;5.40;99.90;;;;;;5082735;28;20448;-73
2021/11/27 11:43:55;;;;;;;11.40;7.30;;;5.40;99.90;;;;;;5074395;28;20856;-74
2021/11/27 11:46:25;;;;;;;20.47;10.70;;;5.30;99.90;;;;;;5080922;28;20491;-73
2021/11/27 11:48:55;;;;;;;11.97;7.30;;;5.30;99.90;;;;;;5065768;28;20814;-73
2021/11/27 11:51:35;;;;;;;7.90;5.37;;;5.20;99.90;;;;;;5068770;28;20433;-73
2021/11/27 11:54:02;;;;;;;11.50;7.90;;;5.20;99.90;;;;;;5066883;28;20449;-73
2021/11/27 11:56:36;;;;;;;17.50;11.13;;;5.20;99.90;;;;;;5072072;28;20870;-73
2021/11/27 11:59:37;;;;;;;9.67;5.57;;;5.20;99.90;;;;;;5075232;28;20525;-73
2021/11/27 12:02:12;;;;;;;7.73;5.30;;;5.20;99.90;;;;;;5010479;28;20448;-73
2021/11/27 12:04:39;;;;;;;10.03;4.93;;;5.20;99.90;;;;;;5068618;28;20515;-74
2021/11/27 12:07:31;;;;;;;6.13;5.03;;;5.10;99.90;;;;;;5079795;28;20557;-74
2021/11/27 12:10:16;;;;;;;5.30;3.50;;;5.10;99.90;;;;;;5069709;28;21034;-73
2021/11/27 12:12:43;;;;;;;7.37;5.60;;;5.00;99.90;;;;;;5069650;28;20544;-72
2021/11/27 12:15:10;;;;;;;7.53;5.33;;;5.00;99.90;;;;;;5061890;28;20460;-73
2021/11/27 12:18:18;;;;;;;9.37;5.83;;;5.00;99.90;;;;;;5089920;28;20469;-70
2021/11/27 12:20:46;;;;;;;9.80;7.07;;;5.00;99.90;;;;;;5078348;28;20493;-73
2021/11/27 12:23:38;;;;;;;6.37;5.40;;;5.10;99.90;;;;;;5056212;28;20464;-74
2021/11/27 12:26:06;;;;;;;8.17;4.70;;;5.10;99.90;;;;;;5067428;28;20515;-74
2021/11/27 12:28:37;;;;;;;7.90;6.17;;;5.10;99.90;;;;;;5068749;28;20974;-73
2021/11/27 12:31:25;;;;;;;7.60;4.57;;;5.10;99.90;;;;;;5071087;28;20448;-73
2021/11/27 12:33:50;;;;;;;6.40;4.80;;;5.10;99.90;;;;;;5077844;28;20462;-73
2021/11/27 12:36:25;;;;;;;2.73;2.53;;;5.20;99.90;;;;;;5052558;28;20526;-73
2021/11/27 12:38:57;;;;;;;2.17;1.97;;;5.20;99.90;;;;;;5059599;28;20339;-74
2021/11/27 12:41:33;;;;;;;2.70;2.23;;;5.20;99.90;;;;;;5074558;28;20925;-73
2021/11/27 12:44:40;;;;;;;2.80;2.47;;;5.20;99.90;;;;;;5069016;28;20460;-73
2021/11/27 12:47:12;;;;;;;3.63;1.90;;;5.30;99.90;;;;;;5036972;28;20552;-72
2021/11/27 12:49:37;;;;;;;2.20;1.70;;;5.20;99.90;;;;;;5069991;28;20464;-73
2021/11/27 12:52:28;;;;;;;1.83;1.57;;;5.20;99.90;;;;;;5059064;28;20538;-74
2021/11/27 12:54:55;;;;;;;2.57;2.03;;;5.20;99.90;;;;;;5043272;28;20306;-73
2021/11/27 12:57:28;;;;;;;4.40;2.67;;;5.20;99.90;;;;;;5049263;28;20841;-73
2021/11/27 13:00:07;;;;;;;3.00;2.10;;;5.20;99.90;;;;;;5055170;28;20534;-73
2021/11/27 13:02:34;;;;;;;3.13;2.30;;;5.20;99.90;;;;;;5069113;28;20848;-73
2021/11/27 13:05:00;;;;;;;3.67;2.20;;;5.20;99.90;;;;;;5076675;28;20461;-74
2021/11/27 13:07:28;;;;;;;1.90;1.70;;;5.30;99.90;;;;;;5042141;28;20958;-74